sensor_id;sensor_type;location;lat;lon;timestamp;pressure;altitude;pressure_sealevel;temperature;humidity
50250;BME280;36133;42.522;27.456;2022-08-24T00:01:21;100737.84;;;29.97;57.00
50250;BME280;36133;42.522;27.456;2022-08-24T00:03:47;100751.28;;;30.18;56.76
50250;BME280;36133;42.522;27.456;2022-08-24T00:06:16;100396.41;;;28.15;56.11
50250;BME280;36133;42.522;27.456;2022-08-24T00:08:43;100648.75;;;29.30;57.25
50250;BME280;36133;42.522;27.456;2022-08-24T00:11:09;100501.66;;;28.12;58.43
50250;BME280;36133;42.522;27.456;2022-08-24T00:13:35;100479.25;;;27.81;58.92
50250;BME280;36133;42.522;27.456;2022-08-24T00:16:03;100541.22;;;28.31;58.72
50250;BME280;36133;42.522;27.456;2022-08-24T00:18:29;100552.47;;;28.89;57.70
50250;BME280;36133;42.522;27.456;2022-08-24T00:20:55;100554.19;;;28.85;57.50
50250;BME280;36133;42.522;27.456;2022-08-24T00:23:20;100556.59;;;28.65;58.16
50250;BME280;36133;42.522;27.456;2022-08-24T00:25:46;100736.44;;;29.86;58.12
50250;BME280;36133;42.522;27.456;2022-08-24T00:28:12;100685.97;;;29.79;57.21
50250;BME280;36133;42.522;27.456;2022-08-24T00:30:37;100632.38;;;29.06;58.48
50250;BME280;36133;42.522;27.456;2022-08-24T00:33:03;100701.66;;;29.97;57.32
50250;BME280;36133;42.522;27.456;2022-08-24T00:35:29;100765.69;;;30.20;57.65
50250;BME280;36133;42.522;27.456;2022-08-24T00:37:56;100478.53;;;28.16;57.86
50250;BME280;36133;42.522;27.456;2022-08-24T00:40:34;100554.66;;;28.65;58.26
50250;BME280;36133;42.522;27.456;2022-08-24T00:43:02;100705.22;;;29.17;59.63
50250;BME280;36133;42.522;27.456;2022-08-24T00:45:31;100744.78;;;29.86;58.31
50250;BME280;36133;42.522;27.456;2022-08-24T00:48:02;100489.53;;;28.08;58.38
50250;BME280;36133;42.522;27.456;2022-08-24T00:51:11;100735.22;;;29.42;59.75
50250;BME280;36133;42.522;27.456;2022-08-24T00:53:43;100625.97;;;29.06;58.36
50250;BME280;36133;42.522;27.456;2022-08-24T00:56:15;100694.66;;;29.41;58.78
50250;BME280;36133;42.522;27.456;2022-08-24T00:58:47;100570.84;;;28.36;59.51
50250;BME280;36133;42.522;27.456;2022-08-24T01:01:13;100592.31;;;28.71;58.90
50250;BME280;36133;42.522;27.456;2022-08-24T01:03:40;100602.16;;;28.77;58.42
50250;BME280;36133;42.522;27.456;2022-08-24T01:06:07;100749.44;;;30.13;57.12
50250;BME280;36133;42.522;27.456;2022-08-24T01:08:33;100645.59;;;29.59;56.38
50250;BME280;36133;42.522;27.456;2022-08-24T01:11:04;100619.25;;;29.57;55.42
50250;BME280;36133;42.522;27.456;2022-08-24T01:13:31;100558.00;;;28.89;56.25
50250;BME280;36133;42.522;27.456;2022-08-24T01:16:02;100577.22;;;29.00;56.05
50250;BME280;36133;42.522;27.456;2022-08-24T01:18:29;100704.25;;;29.49;55.82
50250;BME280;36133;42.522;27.456;2022-08-24T01:21:18;100680.41;;;29.79;54.38
50250;BME280;36133;42.522;27.456;2022-08-24T01:23:47;100627.84;;;29.10;55.24
50250;BME280;36133;42.522;27.456;2022-08-24T01:26:26;100749.91;;;30.07;54.46
50250;BME280;36133;42.522;27.456;2022-08-24T01:28:56;100679.53;;;28.98;55.59
50250;BME280;36133;42.522;27.456;2022-08-24T01:31:25;100496.91;;;27.85;55.22
50250;BME280;36133;42.522;27.456;2022-08-24T01:33:53;100583.59;;;29.00;53.27
50250;BME280;36133;42.522;27.456;2022-08-24T01:36:32;100759.97;;;30.02;53.79
50250;BME280;36133;42.522;27.456;2022-08-24T01:39:07;100743.16;;;29.85;53.51
50250;BME280;36133;42.522;27.456;2022-08-24T01:41:34;100661.78;;;29.43;52.77
50250;BME280;36133;42.522;27.456;2022-08-24T01:44:00;100553.41;;;28.71;52.91
50250;BME280;36133;42.522;27.456;2022-08-24T01:46:25;100625.59;;;28.99;53.12
50250;BME280;36133;42.522;27.456;2022-08-24T01:48:51;100402.94;;;27.56;52.83
50250;BME280;36133;42.522;27.456;2022-08-24T01:51:17;100617.03;;;29.31;52.01
50250;BME280;36133;42.522;27.456;2022-08-24T01:53:42;100534.47;;;28.73;51.83
50250;BME280;36133;42.522;27.456;2022-08-24T01:56:08;100684.47;;;29.01;53.50
50250;BME280;36133;42.522;27.456;2022-08-24T01:58:33;100604.16;;;28.36;53.99
50250;BME280;36133;42.522;27.456;2022-08-24T02:00:59;100655.47;;;28.52;54.19
50250;BME280;36133;42.522;27.456;2022-08-24T02:03:25;100535.69;;;28.03;54.09
50250;BME280;36133;42.522;27.456;2022-08-24T02:05:50;100459.66;;;27.91;53.19
50250;BME280;36133;42.522;27.456;2022-08-24T02:08:16;100604.34;;;28.67;53.13
50250;BME280;36133;42.522;27.456;2022-08-24T02:10:42;100656.28;;;28.94;53.15
50250;BME280;36133;42.522;27.456;2022-08-24T02:13:08;100455.31;;;27.71;53.16
50250;BME280;36133;42.522;27.456;2022-08-24T02:15:36;100431.34;;;27.61;53.46
50250;BME280;36133;42.522;27.456;2022-08-24T02:18:05;100495.56;;;27.22;55.08
50250;BME280;36133;42.522;27.456;2022-08-24T02:20:31;100495.47;;;27.73;53.51
50250;BME280;36133;42.522;27.456;2022-08-24T02:22:57;100605.16;;;28.67;53.37
50250;BME280;36133;42.522;27.456;2022-08-24T02:25:23;100576.81;;;28.43;53.67
50250;BME280;36133;42.522;27.456;2022-08-24T02:27:49;100410.56;;;26.52;55.92
50250;BME280;36133;42.522;27.456;2022-08-24T02:30:16;100506.72;;;27.50;55.15
50250;BME280;36133;42.522;27.456;2022-08-24T02:32:42;100515.63;;;27.93;53.86
50250;BME280;36133;42.522;27.456;2022-08-24T02:35:09;100606.72;;;28.59;53.67
50250;BME280;36133;42.522;27.456;2022-08-24T02:37:34;100561.16;;;27.59;55.60
50250;BME280;36133;42.522;27.456;2022-08-24T02:40:00;100439.91;;;26.53;55.83
50250;BME280;36133;42.522;27.456;2022-08-24T02:42:26;100638.31;;;27.90;55.52
50250;BME280;36133;42.522;27.456;2022-08-24T02:44:51;100702.88;;;28.83;54.00
50250;BME280;36133;42.522;27.456;2022-08-24T02:47:17;100597.72;;;27.94;53.76
50250;BME280;36133;42.522;27.456;2022-08-24T02:49:43;100679.31;;;29.08;52.41
50250;BME280;36133;42.522;27.456;2022-08-24T02:52:09;100580.38;;;29.07;50.98
50250;BME280;36133;42.522;27.456;2022-08-24T02:54:34;100511.53;;;28.31;51.29
50250;BME280;36133;42.522;27.456;2022-08-24T02:57:00;100456.78;;;27.36;53.56
50250;BME280;36133;42.522;27.456;2022-08-24T02:59:25;100537.81;;;28.98;50.40
50250;BME280;36133;42.522;27.456;2022-08-24T03:01:51;100615.03;;;29.23;50.64
50250;BME280;36133;42.522;27.456;2022-08-24T03:04:17;100689.59;;;29.07;52.28
50250;BME280;36133;42.522;27.456;2022-08-24T03:06:43;100555.28;;;28.07;52.61
50250;BME280;36133;42.522;27.456;2022-08-24T03:09:09;100569.47;;;27.92;53.01
50250;BME280;36133;42.522;27.456;2022-08-24T03:11:34;100737.47;;;29.54;51.99
50250;BME280;36133;42.522;27.456;2022-08-24T03:14:00;100698.44;;;28.08;54.48
50250;BME280;36133;42.522;27.456;2022-08-24T03:16:27;100747.44;;;29.05;53.22
50250;BME280;36133;42.522;27.456;2022-08-24T03:18:52;100428.50;;;27.39;52.55
50250;BME280;36133;42.522;27.456;2022-08-24T03:21:18;100545.31;;;27.92;53.04
50250;BME280;36133;42.522;27.456;2022-08-24T03:23:44;100686.13;;;28.74;52.78
50250;BME280;36133;42.522;27.456;2022-08-24T03:26:10;100472.78;;;26.74;54.73
50250;BME280;36133;42.522;27.456;2022-08-24T03:28:35;100619.84;;;28.26;53.56
50250;BME280;36133;42.522;27.456;2022-08-24T03:31:01;100587.78;;;28.20;53.04
50250;BME280;36133;42.522;27.456;2022-08-24T03:33:26;100777.69;;;29.07;53.74
50250;BME280;36133;42.522;27.456;2022-08-24T03:35:52;100644.56;;;28.42;53.01
50250;BME280;36133;42.522;27.456;2022-08-24T03:38:17;100543.38;;;26.95;55.58
50250;BME280;36133;42.522;27.456;2022-08-24T03:40:43;100748.72;;;29.85;51.43
50250;BME280;36133;42.522;27.456;2022-08-24T03:43:09;100736.56;;;29.45;52.26
50250;BME280;36133;42.522;27.456;2022-08-24T03:45:54;100772.81;;;29.90;52.05
50250;BME280;36133;42.522;27.456;2022-08-24T03:48:20;100678.25;;;29.76;50.50
50250;BME280;36133;42.522;27.456;2022-08-24T03:50:46;100644.19;;;29.12;51.56
50250;BME280;36133;42.522;27.456;2022-08-24T03:53:11;100735.03;;;29.53;52.01
50250;BME280;36133;42.522;27.456;2022-08-24T03:55:37;100698.63;;;29.63;50.97
50250;BME280;36133;42.522;27.456;2022-08-24T03:58:02;100760.59;;;30.44;49.84
50250;BME280;36133;42.522;27.456;2022-08-24T04:00:28;100606.75;;;29.32;50.06
50250;BME280;36133;42.522;27.456;2022-08-24T04:02:54;100641.13;;;29.36;50.74
50250;BME280;36133;42.522;27.456;2022-08-24T04:05:20;100507.97;;;27.57;52.84
50250;BME280;36133;42.522;27.456;2022-08-24T04:07:45;100583.53;;;27.82;53.93
50250;BME280;36133;42.522;27.456;2022-08-24T04:10:11;100804.13;;;30.40;50.75
50250;BME280;36133;42.522;27.456;2022-08-24T04:12:38;100768.72;;;30.32;49.72
50250;BME280;36133;42.522;27.456;2022-08-24T04:15:04;100761.59;;;29.59;52.13
50250;BME280;36133;42.522;27.456;2022-08-24T04:17:30;100728.94;;;30.09;50.53
50250;BME280;36133;42.522;27.456;2022-08-24T04:19:55;100824.00;;;31.09;49.03
50250;BME280;36133;42.522;27.456;2022-08-24T04:22:28;100826.31;;;31.07;48.87
50250;BME280;36133;42.522;27.456;2022-08-24T04:24:55;100739.16;;;30.00;50.22
50250;BME280;36133;42.522;27.456;2022-08-24T04:27:21;100748.78;;;30.16;50.34
50250;BME280;36133;42.522;27.456;2022-08-24T04:29:47;100669.56;;;30.00;49.49
50250;BME280;36133;42.522;27.456;2022-08-24T04:32:16;100678.53;;;30.50;48.57
50250;BME280;36133;42.522;27.456;2022-08-24T04:34:43;100643.75;;;30.30;48.24
50250;BME280;36133;42.522;27.456;2022-08-24T04:37:09;100655.84;;;29.00;52.10
50250;BME280;36133;42.522;27.456;2022-08-24T04:39:34;100745.09;;;30.60;49.34
50250;BME280;36133;42.522;27.456;2022-08-24T04:42:00;100492.16;;;28.54;50.40
50250;BME280;36133;42.522;27.456;2022-08-24T04:44:26;100608.03;;;29.70;49.67
50250;BME280;36133;42.522;27.456;2022-08-24T04:46:51;100744.09;;;30.56;49.42
50250;BME280;36133;42.522;27.456;2022-08-24T04:49:17;100735.53;;;30.44;49.76
50250;BME280;36133;42.522;27.456;2022-08-24T04:51:42;100618.06;;;29.80;49.70
50250;BME280;36133;42.522;27.456;2022-08-24T04:54:08;100618.56;;;29.37;50.15
50250;BME280;36133;42.522;27.456;2022-08-24T04:56:33;100828.38;;;30.93;49.90
50250;BME280;36133;42.522;27.456;2022-08-24T04:58:59;100765.72;;;31.30;48.24
50250;BME280;36133;42.522;27.456;2022-08-24T05:01:27;100710.41;;;31.24;47.77
50250;BME280;36133;42.522;27.456;2022-08-24T05:03:54;100642.75;;;30.75;47.16
50250;BME280;36133;42.522;27.456;2022-08-24T05:06:30;100766.03;;;31.29;47.35
50250;BME280;36133;42.522;27.456;2022-08-24T05:08:57;100840.16;;;31.21;49.13
50250;BME280;36133;42.522;27.456;2022-08-24T05:11:24;100758.13;;;30.65;49.56
50250;BME280;36133;42.522;27.456;2022-08-24T05:13:54;100772.41;;;31.20;48.99
50250;BME280;36133;42.522;27.456;2022-08-24T05:16:21;100730.84;;;30.93;48.41
50250;BME280;36133;42.522;27.456;2022-08-24T05:18:47;100790.91;;;30.77;49.43
50250;BME280;36133;42.522;27.456;2022-08-24T05:21:16;100878.38;;;31.20;49.63
50250;BME280;36133;42.522;27.456;2022-08-24T05:23:42;100692.44;;;30.50;48.72
50250;BME280;36133;42.522;27.456;2022-08-24T05:26:17;100684.97;;;30.28;48.63
50250;BME280;36133;42.522;27.456;2022-08-24T05:28:43;100803.13;;;31.29;48.82
50250;BME280;36133;42.522;27.456;2022-08-24T05:31:16;100777.56;;;31.44;48.00
50250;BME280;36133;42.522;27.456;2022-08-24T05:33:43;100692.59;;;30.85;47.99
50250;BME280;36133;42.522;27.456;2022-08-24T05:36:21;100869.50;;;31.67;48.76
50250;BME280;36133;42.522;27.456;2022-08-24T05:38:48;100685.19;;;30.72;47.74
50250;BME280;36133;42.522;27.456;2022-08-24T05:41:15;100889.97;;;31.54;48.55
50250;BME280;36133;42.522;27.456;2022-08-24T05:43:41;100887.88;;;31.68;48.44
50250;BME280;36133;42.522;27.456;2022-08-24T05:46:07;100900.41;;;31.79;48.35
50250;BME280;36133;42.522;27.456;2022-08-24T05:48:32;100804.03;;;31.82;46.97
50250;BME280;36133;42.522;27.456;2022-08-24T05:51:03;100840.47;;;30.57;50.10
50250;BME280;36133;42.522;27.456;2022-08-24T05:53:29;100780.59;;;29.02;52.89
50250;BME280;36133;42.522;27.456;2022-08-24T05:55:55;100814.59;;;30.12;51.15
50250;BME280;36133;42.522;27.456;2022-08-24T05:58:20;100877.72;;;29.89;53.11
50250;BME280;36133;42.522;27.456;2022-08-24T06:00:46;100672.13;;;28.52;54.19
50250;BME280;36133;42.522;27.456;2022-08-24T06:03:14;100624.75;;;27.88;55.34
50250;BME280;36133;42.522;27.456;2022-08-24T06:05:41;100807.75;;;29.05;55.89
50250;BME280;36133;42.522;27.456;2022-08-24T06:08:07;100692.38;;;28.06;57.13
50250;BME280;36133;42.522;27.456;2022-08-24T06:10:41;100778.19;;;29.36;55.61
50250;BME280;36133;42.522;27.456;2022-08-24T06:13:08;100694.22;;;28.57;55.91
50250;BME280;36133;42.522;27.456;2022-08-24T06:15:34;100682.38;;;27.21;58.64
50250;BME280;36133;42.522;27.456;2022-08-24T06:18:00;100709.91;;;27.12;59.74
50250;BME280;36133;42.522;27.456;2022-08-24T06:20:26;100773.22;;;27.62;59.61
50250;BME280;36133;42.522;27.456;2022-08-24T06:22:51;100829.97;;;29.73;55.01
50250;BME280;36133;42.522;27.456;2022-08-24T06:25:18;100762.44;;;28.63;57.53
50250;BME280;36133;42.522;27.456;2022-08-24T06:28:02;100640.97;;;27.95;58.70
50250;BME280;36133;42.522;27.456;2022-08-24T06:30:28;100634.31;;;28.10;57.58
50250;BME280;36133;42.522;27.456;2022-08-24T06:32:57;100911.34;;;30.51;55.27
50250;BME280;36133;42.522;27.456;2022-08-24T06:35:23;100908.38;;;29.34;56.86
50250;BME280;36133;42.522;27.456;2022-08-24T06:37:48;100785.13;;;28.98;55.38
